sensor_id;sensor_type;location;lat;lon;timestamp;temperature;humidity
16313;DHT22;8265;52.622;13.296;2023-04-25T00:05:07;8.00;74.00
16313;DHT22;8265;52.622;13.296;2023-04-25T00:10:28;8.00;74.00
16313;DHT22;8265;52.622;13.296;2023-04-25T00:15:49;8.10;73.30
16313;DHT22;8265;52.622;13.296;2023-04-25T00:21:10;8.00;73.20
16313;DHT22;8265;52.622;13.296;2023-04-25T00:26:31;8.00;72.90
16313;DHT22;8265;52.622;13.296;2023-04-25T00:31:52;8.10;72.20
16313;DHT22;8265;52.622;13.296;2023-04-25T00:37:13;8.10;72.10
16313;DHT22;8265;52.622;13.296;2023-04-25T00:42:34;8.20;71.20
16313;DHT22;8265;52.622;13.296;2023-04-25T00:47:55;8.20;71.20
16313;DHT22;8265;52.622;13.296;2023-04-25T00:53:16;8.10;71.20
16313;DHT22;8265;52.622;13.296;2023-04-25T00:58:37;8.10;71.20
16313;DHT22;8265;52.622;13.296;2023-04-25T01:03:58;8.00;71.60
16313;DHT22;8265;52.622;13.296;2023-04-25T01:09:19;7.80;72.10
16313;DHT22;8265;52.622;13.296;2023-04-25T01:14:40;8.00;71.60
16313;DHT22;8265;52.622;13.296;2023-04-25T01:20:03;8.00;71.30
16313;DHT22;8265;52.622;13.296;2023-04-25T01:25:22;7.80;71.90
16313;DHT22;8265;52.622;13.296;2023-04-25T01:30:43;7.80;72.10
16313;DHT22;8265;52.622;13.296;2023-04-25T01:36:04;7.80;72.10
16313;DHT22;8265;52.622;13.296;2023-04-25T01:41:25;7.80;72.40
16313;DHT22;8265;52.622;13.296;2023-04-25T01:46:46;7.80;72.00
16313;DHT22;8265;52.622;13.296;2023-04-25T01:52:07;7.80;71.70
16313;DHT22;8265;52.622;13.296;2023-04-25T01:57:28;7.80;72.10
16313;DHT22;8265;52.622;13.296;2023-04-25T02:02:49;7.80;72.10
16313;DHT22;8265;52.622;13.296;2023-04-25T02:08:10;7.60;72.40
16313;DHT22;8265;52.622;13.296;2023-04-25T02:13:31;7.60;72.50
16313;DHT22;8265;52.622;13.296;2023-04-25T02:18:52;7.60;73.00
16313;DHT22;8265;52.622;13.296;2023-04-25T02:24:13;7.60;72.90
16313;DHT22;8265;52.622;13.296;2023-04-25T02:29:34;7.50;73.20
16313;DHT22;8265;52.622;13.296;2023-04-25T02:34:55;7.60;73.40
16313;DHT22;8265;52.622;13.296;2023-04-25T02:40:16;7.50;73.50
16313;DHT22;8265;52.622;13.296;2023-04-25T02:45:37;7.50;73.80
16313;DHT22;8265;52.622;13.296;2023-04-25T02:50:58;7.50;73.50
16313;DHT22;8265;52.622;13.296;2023-04-25T02:56:19;7.50;74.10
16313;DHT22;8265;52.622;13.296;2023-04-25T03:01:40;7.50;73.70
16313;DHT22;8265;52.622;13.296;2023-04-25T03:07:01;7.40;74.00
16313;DHT22;8265;52.622;13.296;2023-04-25T03:12:22;7.50;74.10
16313;DHT22;8265;52.622;13.296;2023-04-25T03:17:43;7.60;73.80
16313;DHT22;8265;52.622;13.296;2023-04-25T03:23:04;7.60;73.20
16313;DHT22;8265;52.622;13.296;2023-04-25T03:28:25;7.60;73.50
16313;DHT22;8265;52.622;13.296;2023-04-25T03:33:46;7.50;74.10
16313;DHT22;8265;52.622;13.296;2023-04-25T03:39:07;7.80;73.30
16313;DHT22;8265;52.622;13.296;2023-04-25T03:44:28;7.50;73.90
16313;DHT22;8265;52.622;13.296;2023-04-25T03:49:49;7.50;73.80
16313;DHT22;8265;52.622;13.296;2023-04-25T03:55:10;7.50;74.20
16313;DHT22;8265;52.622;13.296;2023-04-25T04:00:31;7.50;74.30
16313;DHT22;8265;52.622;13.296;2023-04-25T04:05:52;7.50;74.10
16313;DHT22;8265;52.622;13.296;2023-04-25T04:11:13;7.50;74.20
16313;DHT22;8265;52.622;13.296;2023-04-25T04:16:34;7.40;74.70
16313;DHT22;8265;52.622;13.296;2023-04-25T04:21:55;7.30;74.80
16313;DHT22;8265;52.622;13.296;2023-04-25T04:27:19;7.40;74.80
16313;DHT22;8265;52.622;13.296;2023-04-25T04:32:37;7.50;74.60
16313;DHT22;8265;52.622;13.296;2023-04-25T04:37:58;7.60;73.90
16313;DHT22;8265;52.622;13.296;2023-04-25T04:43:19;7.60;74.00
16313;DHT22;8265;52.622;13.296;2023-04-25T04:48:40;7.50;74.20
16313;DHT22;8265;52.622;13.296;2023-04-25T04:54:01;7.60;74.10
16313;DHT22;8265;52.622;13.296;2023-04-25T04:59:22;7.50;74.30
16313;DHT22;8265;52.622;13.296;2023-04-25T05:04:43;7.50;74.30
16313;DHT22;8265;52.622;13.296;2023-04-25T05:10:04;7.70;74.30
16313;DHT22;8265;52.622;13.296;2023-04-25T05:15:25;7.80;73.70
16313;DHT22;8265;52.622;13.296;2023-04-25T05:20:46;7.80;73.70
16313;DHT22;8265;52.622;13.296;2023-04-25T05:26:07;7.90;73.90
16313;DHT22;8265;52.622;13.296;2023-04-25T05:31:28;8.00;73.30
16313;DHT22;8265;52.622;13.296;2023-04-25T05:36:49;7.90;73.40
16313;DHT22;8265;52.622;13.296;2023-04-25T05:42:10;7.80;74.00
16313;DHT22;8265;52.622;13.296;2023-04-25T05:47:31;7.90;73.90
16313;DHT22;8265;52.622;13.296;2023-04-25T05:52:52;8.00;73.40
16313;DHT22;8265;52.622;13.296;2023-04-25T05:58:13;8.00;74.30
16313;DHT22;8265;52.622;13.296;2023-04-25T06:03:34;8.00;74.00
16313;DHT22;8265;52.622;13.296;2023-04-25T06:08:55;8.20;73.60
16313;DHT22;8265;52.622;13.296;2023-04-25T06:14:16;8.20;73.60
16313;DHT22;8265;52.622;13.296;2023-04-25T06:19:37;8.10;74.00
16313;DHT22;8265;52.622;13.296;2023-04-25T06:24:58;8.00;75.00
16313;DHT22;8265;52.622;13.296;2023-04-25T06:30:19;8.00;75.40
16313;DHT22;8265;52.622;13.296;2023-04-25T06:35:40;8.00;75.20
16313;DHT22;8265;52.622;13.296;2023-04-25T06:41:01;7.90;75.50
16313;DHT22;8265;52.622;13.296;2023-04-25T06:46:22;7.80;76.10
16313;DHT22;8265;52.622;13.296;2023-04-25T06:51:43;7.80;76.40
16313;DHT22;8265;52.622;13.296;2023-04-25T06:57:04;7.70;76.80
16313;DHT22;8265;52.622;13.296;2023-04-25T07:02:25;7.80;76.90
16313;DHT22;8265;52.622;13.296;2023-04-25T07:07:46;7.90;76.50
16313;DHT22;8265;52.622;13.296;2023-04-25T07:13:07;8.00;76.00
16313;DHT22;8265;52.622;13.296;2023-04-25T07:18:28;8.20;75.30
16313;DHT22;8265;52.622;13.296;2023-04-25T07:23:49;8.50;73.50
16313;DHT22;8265;52.622;13.296;2023-04-25T07:29:10;8.40;73.20
16313;DHT22;8265;52.622;13.296;2023-04-25T07:34:31;8.30;72.30
16313;DHT22;8265;52.622;13.296;2023-04-25T07:39:52;8.20;72.20
16313;DHT22;8265;52.622;13.296;2023-04-25T07:45:13;8.60;70.20
16313;DHT22;8265;52.622;13.296;2023-04-25T07:50:34;8.80;69.10
16313;DHT22;8265;52.622;13.296;2023-04-25T07:55:55;9.00;68.70
16313;DHT22;8265;52.622;13.296;2023-04-25T08:01:16;9.10;66.80
16313;DHT22;8265;52.622;13.296;2023-04-25T08:06:37;9.10;66.60
16313;DHT22;8265;52.622;13.296;2023-04-25T08:11:58;8.70;66.10
16313;DHT22;8265;52.622;13.296;2023-04-25T08:17:19;8.60;66.20
16313;DHT22;8265;52.622;13.296;2023-04-25T08:22:40;9.20;65.40
16313;DHT22;8265;52.622;13.296;2023-04-25T08:28:01;9.40;65.70
16313;DHT22;8265;52.622;13.296;2023-04-25T08:33:22;9.40;65.80
16313;DHT22;8265;52.622;13.296;2023-04-25T08:38:43;9.60;64.10
16313;DHT22;8265;52.622;13.296;2023-04-25T08:44:04;9.80;61.70
16313;DHT22;8265;52.622;13.296;2023-04-25T08:49:25;10.00;59.80
16313;DHT22;8265;52.622;13.296;2023-04-25T08:54:46;10.00;58.80
16313;DHT22;8265;52.622;13.296;2023-04-25T09:00:08;9.60;60.30
16313;DHT22;8265;52.622;13.296;2023-04-25T09:05:28;9.40;59.20
16313;DHT22;8265;52.622;13.296;2023-04-25T09:10:49;9.70;58.00
16313;DHT22;8265;52.622;13.296;2023-04-25T09:16:10;10.00;56.20
16313;DHT22;8265;52.622;13.296;2023-04-25T09:21:31;10.10;56.40
16313;DHT22;8265;52.622;13.296;2023-04-25T09:26:52;10.20;54.70
16313;DHT22;8265;52.622;13.296;2023-04-25T09:37:34;10.40;51.30
16313;DHT22;8265;52.622;13.296;2023-04-25T09:42:55;10.30;50.50
16313;DHT22;8265;52.622;13.296;2023-04-25T09:48:19;10.50;50.60
16313;DHT22;8265;52.622;13.296;2023-04-25T09:53:38;10.70;49.50
16313;DHT22;8265;52.622;13.296;2023-04-25T09:58:58;10.60;49.00
16313;DHT22;8265;52.622;13.296;2023-04-25T10:04:19;10.80;49.70
16313;DHT22;8265;52.622;13.296;2023-04-25T10:09:40;10.80;48.00
16313;DHT22;8265;52.622;13.296;2023-04-25T10:15:02;10.20;49.10
16313;DHT22;8265;52.622;13.296;2023-04-25T10:20:22;10.60;46.80
16313;DHT22;8265;52.622;13.296;2023-04-25T10:25:43;10.70;47.00
16313;DHT22;8265;52.622;13.296;2023-04-25T10:31:06;11.50;47.20
16313;DHT22;8265;52.622;13.296;2023-04-25T10:36:25;11.70;45.40
16313;DHT22;8265;52.622;13.296;2023-04-25T10:41:46;11.10;45.90
16313;DHT22;8265;52.622;13.296;2023-04-25T10:47:07;11.00;46.40
16313;DHT22;8265;52.622;13.296;2023-04-25T10:52:28;11.50;45.90
16313;DHT22;8265;52.622;13.296;2023-04-25T10:57:49;11.00;45.70
16313;DHT22;8265;52.622;13.296;2023-04-25T11:03:10;10.10;46.80
16313;DHT22;8265;52.622;13.296;2023-04-25T11:08:46;9.50;47.20
16313;DHT22;8265;52.622;13.296;2023-04-25T11:13:52;9.20;48.20
16313;DHT22;8265;52.622;13.296;2023-04-25T11:19:13;9.40;47.10
16313;DHT22;8265;52.622;13.296;2023-04-25T11:24:34;10.00;45.70
16313;DHT22;8265;52.622;13.296;2023-04-25T11:29:55;10.30;44.50
16313;DHT22;8265;52.622;13.296;2023-04-25T11:35:16;10.60;44.10
16313;DHT22;8265;52.622;13.296;2023-04-25T11:40:37;10.60;44.40
16313;DHT22;8265;52.622;13.296;2023-04-25T11:45:58;10.80;44.80
16313;DHT22;8265;52.622;13.296;2023-04-25T11:51:19;11.10;44.10
16313;DHT22;8265;52.622;13.296;2023-04-25T11:56:40;10.70;45.30
16313;DHT22;8265;52.622;13.296;2023-04-25T12:02:01;10.10;44.80
16313;DHT22;8265;52.622;13.296;2023-04-25T12:07:27;10.00;44.50
16313;DHT22;8265;52.622;13.296;2023-04-25T12:12:44;10.10;44.80
16313;DHT22;8265;52.622;13.296;2023-04-25T12:18:04;10.60;44.90
16313;DHT22;8265;52.622;13.296;2023-04-25T12:23:28;11.10;43.20
16313;DHT22;8265;52.622;13.296;2023-04-25T12:28:46;11.00;43.30
16313;DHT22;8265;52.622;13.296;2023-04-25T12:34:07;10.90;43.90
16313;DHT22;8265;52.622;13.296;2023-04-25T12:39:28;10.60;45.20
16313;DHT22;8265;52.622;13.296;2023-04-25T12:44:49;11.10;45.20
16313;DHT22;8265;52.622;13.296;2023-04-25T12:50:10;11.40;43.90
16313;DHT22;8265;52.622;13.296;2023-04-25T12:55:31;11.40;47.00
16313;DHT22;8265;52.622;13.296;2023-04-25T13:00:52;11.90;43.90
16313;DHT22;8265;52.622;13.296;2023-04-25T13:06:13;12.00;42.60
16313;DHT22;8265;52.622;13.296;2023-04-25T13:11:34;11.10;44.30
16313;DHT22;8265;52.622;13.296;2023-04-25T13:16:55;10.50;46.00
16313;DHT22;8265;52.622;13.296;2023-04-25T13:22:16;10.10;46.60
16313;DHT22;8265;52.622;13.296;2023-04-25T13:27:37;9.80;46.70
16313;DHT22;8265;52.622;13.296;2023-04-25T13:32:58;9.70;48.00
16313;DHT22;8265;52.622;13.296;2023-04-25T13:38:22;10.00;47.60
16313;DHT22;8265;52.622;13.296;2023-04-25T13:43:40;10.10;48.50
16313;DHT22;8265;52.622;13.296;2023-04-25T13:49:01;10.10;48.00
16313;DHT22;8265;52.622;13.296;2023-04-25T13:54:22;10.60;47.40
16313;DHT22;8265;52.622;13.296;2023-04-25T13:59:43;11.40;45.80
16313;DHT22;8265;52.622;13.296;2023-04-25T14:05:04;12.00;45.70
16313;DHT22;8265;52.622;13.296;2023-04-25T14:10:25;11.40;45.70
16313;DHT22;8265;52.622;13.296;2023-04-25T14:15:46;11.00;47.30
16313;DHT22;8265;52.622;13.296;2023-04-25T14:21:07;10.80;46.60
16313;DHT22;8265;52.622;13.296;2023-04-25T14:26:28;10.80;47.20
16313;DHT22;8265;52.622;13.296;2023-04-25T14:31:49;10.00;49.40
16313;DHT22;8265;52.622;13.296;2023-04-25T14:37:10;9.80;50.60
16313;DHT22;8265;52.622;13.296;2023-04-25T14:42:31;10.20;49.60
16313;DHT22;8265;52.622;13.296;2023-04-25T14:47:52;9.90;49.50
16313;DHT22;8265;52.622;13.296;2023-04-25T14:53:13;9.40;50.30
16313;DHT22;8265;52.622;13.296;2023-04-25T14:58:34;9.00;51.80
16313;DHT22;8265;52.622;13.296;2023-04-25T15:03:55;9.00;51.90
16313;DHT22;8265;52.622;13.296;2023-04-25T15:09:16;9.20;50.50
16313;DHT22;8265;52.622;13.296;2023-04-25T15:14:37;9.50;46.70
16313;DHT22;8265;52.622;13.296;2023-04-25T15:19:58;10.40;46.30
16313;DHT22;8265;52.622;13.296;2023-04-25T15:25:19;11.00;44.80
16313;DHT22;8265;52.622;13.296;2023-04-25T15:30:40;11.00;44.40
16313;DHT22;8265;52.622;13.296;2023-04-25T15:36:01;12.10;43.30
16313;DHT22;8265;52.622;13.296;2023-04-25T15:41:23;14.50;41.00
16313;DHT22;8265;52.622;13.296;2023-04-25T15:46:43;13.00;42.20
16313;DHT22;8265;52.622;13.296;2023-04-25T15:52:04;11.20;45.10
16313;DHT22;8265;52.622;13.296;2023-04-25T15:57:25;10.40;46.10
16313;DHT22;8265;52.622;13.296;2023-04-25T16:02:46;10.00;47.20
16313;DHT22;8265;52.622;13.296;2023-04-25T16:08:07;9.60;47.60
16313;DHT22;8265;52.622;13.296;2023-04-25T16:13:28;9.40;48.30
16313;DHT22;8265;52.622;13.296;2023-04-25T16:18:49;9.40;48.90
16313;DHT22;8265;52.622;13.296;2023-04-25T16:24:10;9.10;46.20
16313;DHT22;8265;52.622;13.296;2023-04-25T16:29:31;9.00;46.60
16313;DHT22;8265;52.622;13.296;2023-04-25T16:34:52;9.10;47.10
16313;DHT22;8265;52.622;13.296;2023-04-25T16:40:13;9.40;47.80
16313;DHT22;8265;52.622;13.296;2023-04-25T16:45:34;10.20;45.80
16313;DHT22;8265;52.622;13.296;2023-04-25T16:50:55;10.80;44.90
16313;DHT22;8265;52.622;13.296;2023-04-25T16:56:16;10.60;45.80
16313;DHT22;8265;52.622;13.296;2023-04-25T17:01:38;10.80;46.30
16313;DHT22;8265;52.622;13.296;2023-04-25T17:06:58;10.20;47.20
16313;DHT22;8265;52.622;13.296;2023-04-25T17:12:19;10.00;48.90
16313;DHT22;8265;52.622;13.296;2023-04-25T17:17:40;10.30;48.30
16313;DHT22;8265;52.622;13.296;2023-04-25T17:23:01;10.00;48.90
16313;DHT22;8265;52.622;13.296;2023-04-25T17:28:22;9.70;49.60
16313;DHT22;8265;52.622;13.296;2023-04-25T17:33:43;9.00;51.80
16313;DHT22;8265;52.622;13.296;2023-04-25T17:39:04;8.80;52.40
16313;DHT22;8265;52.622;13.296;2023-04-25T17:44:25;8.50;53.00
16313;DHT22;8265;52.622;13.296;2023-04-25T17:49:46;8.30;53.70
16313;DHT22;8265;52.622;13.296;2023-04-25T17:55:07;8.20;53.80
16313;DHT22;8265;52.622;13.296;2023-04-25T18:00:28;7.90;54.80
16313;DHT22;8265;52.622;13.296;2023-04-25T18:05:49;7.80;55.40
16313;DHT22;8265;52.622;13.296;2023-04-25T18:11:10;7.60;56.00
16313;DHT22;8265;52.622;13.296;2023-04-25T18:16:31;7.50;56.90
16313;DHT22;8265;52.622;13.296;2023-04-25T18:21:52;7.20;57.90
16313;DHT22;8265;52.622;13.296;2023-04-25T18:27:13;7.20;57.70
16313;DHT22;8265;52.622;13.296;2023-04-25T18:32:34;7.00;57.10
16313;DHT22;8265;52.622;13.296;2023-04-25T18:37:55;7.10;55.80
16313;DHT22;8265;52.622;13.296;2023-04-25T18:43:16;7.00;55.50
16313;DHT22;8265;52.622;13.296;2023-04-25T18:48:37;7.00;54.20
16313;DHT22;8265;52.622;13.296;2023-04-25T18:53:58;7.00;54.20
16313;DHT22;8265;52.622;13.296;2023-04-25T18:59:19;7.00;53.90
16313;DHT22;8265;52.622;13.296;2023-04-25T19:04:40;7.10;53.50
16313;DHT22;8265;52.622;13.296;2023-04-25T19:10:02;7.00;53.90
16313;DHT22;8265;52.622;13.296;2023-04-25T19:15:22;7.00;54.10
16313;DHT22;8265;52.622;13.296;2023-04-25T19:20:43;6.60;55.00
16313;DHT22;8265;52.622;13.296;2023-04-25T19:26:04;6.50;55.30
16313;DHT22;8265;52.622;13.296;2023-04-25T19:31:25;6.30;56.30
16313;DHT22;8265;52.622;13.296;2023-04-25T19:36:46;6.30;56.30
16313;DHT22;8265;52.622;13.296;2023-04-25T19:42:07;6.20;56.90
16313;DHT22;8265;52.622;13.296;2023-04-25T19:47:28;6.20;57.00
16313;DHT22;8265;52.622;13.296;2023-04-25T19:52:49;6.20;57.10
16313;DHT22;8265;52.622;13.296;2023-04-25T19:58:10;6.00;58.10
16313;DHT22;8265;52.622;13.296;2023-04-25T20:03:31;5.90;58.40
16313;DHT22;8265;52.622;13.296;2023-04-25T20:08:52;5.60;59.50
16313;DHT22;8265;52.622;13.296;2023-04-25T20:14:13;5.50;60.50
16313;DHT22;8265;52.622;13.296;2023-04-25T20:19:34;5.30;61.40
16313;DHT22;8265;52.622;13.296;2023-04-25T20:24:55;5.00;62.70
16313;DHT22;8265;52.622;13.296;2023-04-25T20:30:16;5.00;62.40
16313;DHT22;8265;52.622;13.296;2023-04-25T20:35:37;4.80;64.40
16313;DHT22;8265;52.622;13.296;2023-04-25T20:40:58;4.70;64.30
16313;DHT22;8265;52.622;13.296;2023-04-25T20:46:19;4.80;64.10
16313;DHT22;8265;52.622;13.296;2023-04-25T20:51:40;4.90;63.90
16313;DHT22;8265;52.622;13.296;2023-04-25T20:57:01;5.00;63.50
16313;DHT22;8265;52.622;13.296;2023-04-25T21:02:22;5.00;63.50
16313;DHT22;8265;52.622;13.296;2023-04-25T21:07:43;4.80;64.10
16313;DHT22;8265;52.622;13.296;2023-04-25T21:13:04;4.50;65.60
16313;DHT22;8265;52.622;13.296;2023-04-25T21:18:25;4.30;66.30
16313;DHT22;8265;52.622;13.296;2023-04-25T21:23:46;4.20;67.00
16313;DHT22;8265;52.622;13.296;2023-04-25T21:29:07;4.20;66.70
16313;DHT22;8265;52.622;13.296;2023-04-25T21:34:28;4.40;65.80
16313;DHT22;8265;52.622;13.296;2023-04-25T21:39:49;4.40;65.80
16313;DHT22;8265;52.622;13.296;2023-04-25T21:45:10;4.40;65.50
16313;DHT22;8265;52.622;13.296;2023-04-25T21:50:31;4.20;66.20
16313;DHT22;8265;52.622;13.296;2023-04-25T21:55:52;4.20;66.10
16313;DHT22;8265;52.622;13.296;2023-04-25T22:01:13;4.00;66.60
16313;DHT22;8265;52.622;13.296;2023-04-25T22:06:34;4.10;66.60
16313;DHT22;8265;52.622;13.296;2023-04-25T22:11:55;3.90;67.80
16313;DHT22;8265;52.622;13.296;2023-04-25T22:17:16;3.70;68.60
16313;DHT22;8265;52.622;13.296;2023-04-25T22:22:37;3.60;68.50
16313;DHT22;8265;52.622;13.296;2023-04-25T22:27:58;3.70;67.70
16313;DHT22;8265;52.622;13.296;2023-04-25T22:33:19;3.60;68.40
16313;DHT22;8265;52.622;13.296;2023-04-25T22:38:40;3.90;67.40
16313;DHT22;8265;52.622;13.296;2023-04-25T22:44:01;3.50;68.60
16313;DHT22;8265;52.622;13.296;2023-04-25T22:49:22;3.50;69.00
16313;DHT22;8265;52.622;13.296;2023-04-25T22:54:43;3.30;69.60
16313;DHT22;8265;52.622;13.296;2023-04-25T23:00:05;3.30;69.90
16313;DHT22;8265;52.622;13.296;2023-04-25T23:05:25;3.50;70.00
16313;DHT22;8265;52.622;13.296;2023-04-25T23:10:46;3.40;70.00
16313;DHT22;8265;52.622;13.296;2023-04-25T23:16:08;3.30;70.50
16313;DHT22;8265;52.622;13.296;2023-04-25T23:21:28;3.30;70.70
16313;DHT22;8265;52.622;13.296;2023-04-25T23:26:49;3.20;71.30
16313;DHT22;8265;52.622;13.296;2023-04-25T23:32:10;3.10;71.80
16313;DHT22;8265;52.622;13.296;2023-04-25T23:37:32;3.30;71.30
16313;DHT22;8265;52.622;13.296;2023-04-25T23:42:52;3.20;71.60
16313;DHT22;8265;52.622;13.296;2023-04-25T23:48:13;3.30;71.70
16313;DHT22;8265;52.622;13.296;2023-04-25T23:53:34;3.30;71.70
16313;DHT22;8265;52.622;13.296;2023-04-25T23:58:55;3.10;72.00
